Smithfield, Rhode Island
Current Conditions -  °F | °C
As of 12:55 AM on Sunday 23 Nov 2014 (Local Time) from KSFZ Reporting Station
Broken Clouds Broken Clouds  
Wind Chill: 38°   Ceiling: 8500
Heat Index: 43°   Visibility: 10mi
Dew Point: 21°   Wind: 8mph
Humidity: 42%   Direction: 230°SW
Pressure: 30.07"   Gusts: NA
Location:  41.92°N, 71.55°W
Report Text: KSFZ 230555Z 23007KT 10SM SCT065 BKN085 06/M06 A3007 RMK AO1 10060 20030 57003
Loading
Personal Weather Stations






























Interactive Weather Map New forecast layout! Learn more

10-Day Weather Forecast

Advertisements
Track Severe Weather on mobile